createdAt,value
2018-03-03T00:02:04.339Z,144.30
2018-03-03T00:04:56.652Z,138.93
2018-03-03T00:07:27.817Z,113.10
2018-03-03T00:09:56.975Z,132.70
2018-03-03T00:12:26.155Z,137.65
2018-03-03T00:15:00.084Z,123.37
2018-03-03T00:20:06.622Z,131.52
2018-03-03T00:22:41.743Z,127.28
2018-03-03T00:25:10.915Z,125.00
2018-03-03T00:27:45.585Z,128.87
2018-03-03T00:30:14.777Z,136.30
2018-03-03T00:32:43.955Z,126.80
2018-03-03T00:35:13.159Z,131.32
2018-03-03T00:37:42.328Z,139.62
2018-03-03T00:40:11.515Z,122.80
2018-03-03T00:42:40.687Z,139.27
2018-03-03T00:45:09.842Z,140.15
2018-03-03T00:47:47.254Z,140.07
2018-03-03T00:50:16.424Z,132.23
2018-03-03T00:58:04.834Z,141.75
2018-03-03T01:00:34.062Z,136.48
2018-03-03T01:03:04.258Z,118.27
2018-03-03T01:05:35.411Z,135.32
2018-03-03T01:08:04.615Z,140.60
2018-03-03T01:10:37.795Z,136.40
2018-03-03T01:13:07.003Z,120.20
2018-03-03T01:15:36.204Z,140.00
2018-03-03T01:18:05.361Z,124.28
2018-03-03T01:20:36.562Z,130.32
2018-03-03T01:23:05.763Z,105.77
2018-03-03T01:25:34.976Z,124.90
2018-03-03T01:28:04.143Z,130.75
2018-03-03T01:30:33.279Z,123.77
2018-03-03T01:33:02.468Z,140.27
2018-03-03T01:35:31.671Z,142.30
2018-03-03T01:43:16.620Z,140.57
2018-03-03T01:46:04.167Z,125.07
2018-03-03T01:48:41.246Z,151.55
2018-03-03T01:51:28.248Z,160.93
2018-03-03T01:53:58.331Z,135.30
2018-03-03T01:59:07.023Z,157.75
2018-03-03T02:01:38.335Z,131.00
2018-03-03T02:04:07.508Z,154.98
2018-03-03T02:06:36.679Z,132.87
2018-03-03T02:09:11.022Z,159.65
2018-03-03T02:11:40.168Z,130.40
2018-03-03T02:16:44.604Z,151.55
2018-03-03T02:19:13.810Z,121.80
2018-03-03T02:21:43.068Z,173.35
2018-03-03T02:24:21.043Z,214.57
2018-03-03T02:27:02.121Z,144.82
2018-03-03T02:29:31.292Z,145.20
2018-03-03T02:32:13.297Z,121.82
2018-03-03T02:35:12.408Z,125.12
2018-03-03T02:37:41.624Z,89.25
2018-03-03T02:40:12.703Z,92.72
2018-03-03T02:45:45.193Z,137.02
2018-03-03T02:48:14.399Z,106.60
2018-03-03T02:50:44.588Z,157.18
2018-03-03T02:53:13.755Z,130.65
2018-03-03T02:55:43.008Z,108.35
2018-03-03T02:58:12.155Z,98.53
2018-03-03T03:00:54.481Z,137.60
2018-03-03T03:03:23.636Z,121.72
2018-03-03T03:06:12.085Z,113.97
2018-03-03T03:08:50.338Z,124.72
2018-03-03T03:11:19.554Z,172.48
2018-03-03T03:13:58.616Z,189.60
2018-03-03T03:16:27.787Z,411.27
2018-03-03T03:18:56.986Z,798.20
2018-03-03T03:21:27.075Z,1036.80
2018-03-03T03:23:56.293Z,980.90
2018-03-03T03:26:25.472Z,790.78
2018-03-03T03:31:29.841Z,1562.35
2018-03-03T03:33:59.955Z,789.20
2018-03-03T03:36:29.121Z,872.55
2018-03-03T03:39:01.420Z,527.78
2018-03-03T03:41:30.592Z,895.00
2018-03-03T03:43:59.798Z,538.80
2018-03-03T03:46:28.976Z,591.40
2018-03-03T03:49:03.566Z,393.35
2018-03-03T03:51:38.578Z,425.12
2018-03-03T03:56:46.214Z,1102.50
2018-03-03T03:59:15.419Z,626.78
2018-03-03T04:01:58.389Z,446.55
2018-03-03T04:04:27.579Z,269.23
2018-03-03T04:07:11.724Z,331.75
2018-03-03T04:09:46.500Z,333.42
2018-03-03T04:12:15.703Z,198.62
2018-03-03T04:14:52.418Z,213.50
2018-03-03T04:17:21.580Z,93.10
2018-03-03T04:20:12.795Z,79.95
2018-03-03T04:22:43.951Z,69.68
2018-03-03T04:25:13.135Z,67.28
2018-03-03T04:27:49.603Z,68.85
2018-03-03T04:30:18.764Z,63.55
2018-03-03T04:32:52.831Z,70.12
2018-03-03T04:35:22.019Z,72.37
2018-03-03T04:37:53.126Z,97.10
2018-03-03T04:40:22.318Z,96.18
2018-03-03T04:42:56.989Z,156.75
2018-03-03T04:45:26.199Z,102.43
2018-03-03T04:47:57.340Z,148.43
2018-03-03T04:50:26.528Z,100.05
2018-03-03T04:53:13.189Z,110.05
2018-03-03T04:55:46.277Z,89.00
2018-03-03T05:01:18.218Z,130.10
2018-03-03T05:03:50.403Z,91.35
2018-03-03T05:06:22.062Z,92.00
2018-03-03T05:08:51.260Z,123.30
2018-03-03T05:11:20.452Z,121.83
2018-03-03T05:13:57.234Z,127.15
2018-03-03T05:16:27.239Z,97.55
2018-03-03T05:19:19.140Z,102.30
2018-03-03T05:21:56.959Z,103.60
2018-03-03T05:30:22.375Z,118.18
2018-03-03T05:35:34.596Z,134.55
2018-03-03T05:41:18.640Z,126.22
2018-03-03T05:43:56.384Z,94.43
2018-03-03T05:46:31.057Z,106.15
2018-03-03T05:55:21.147Z,132.65
2018-03-03T05:58:09.539Z,104.05
2018-03-03T06:12:12.239Z,137.70
2018-03-03T06:17:19.451Z,124.57
2018-03-03T06:19:52.272Z,99.10
2018-03-03T06:22:21.457Z,98.30
2018-03-03T06:24:51.555Z,102.95
2018-03-03T06:27:20.702Z,80.00
2018-03-03T06:29:49.954Z,106.25
2018-03-03T06:32:19.204Z,92.82
2018-03-03T06:37:23.564Z,102.93
2018-03-03T06:40:06.518Z,90.75
2018-03-03T06:42:35.687Z,97.22
2018-03-03T06:45:09.460Z,101.50
2018-03-03T06:47:40.582Z,87.40
2018-03-03T06:50:13.103Z,80.75
2018-03-03T06:52:55.952Z,75.28
2018-03-03T06:55:25.140Z,89.32
2018-03-03T06:58:12.443Z,98.20
2018-03-03T07:00:41.694Z,98.30
2018-03-03T07:03:10.824Z,103.43
2018-03-03T07:05:53.155Z,94.90
2018-03-03T07:08:22.346Z,90.30
2018-03-03T07:11:04.667Z,71.25
2018-03-03T07:13:35.793Z,72.95
2018-03-03T07:16:12.543Z,80.78
2018-03-03T07:21:16.941Z,90.38
2018-03-03T07:23:51.587Z,70.70
2018-03-03T07:26:20.760Z,93.85
2018-03-03T07:29:00.296Z,82.97
2018-03-03T07:31:29.465Z,94.33
2018-03-03T07:34:07.019Z,100.90
2018-03-03T07:36:36.275Z,102.33
2018-03-03T07:39:05.543Z,99.47
2018-03-03T07:41:35.691Z,107.43
2018-03-03T07:44:08.187Z,97.50
2018-03-03T07:46:37.388Z,115.62
2018-03-03T07:49:06.567Z,122.65
2018-03-03T07:51:36.883Z,119.77
2018-03-03T07:54:13.695Z,115.20
2018-03-03T07:59:47.789Z,115.95
2018-03-03T08:02:16.991Z,116.67
2018-03-03T08:05:02.052Z,113.72
2018-03-03T08:07:31.425Z,107.13
2018-03-03T08:10:16.608Z,116.97
2018-03-03T08:15:24.107Z,118.45
2018-03-03T08:17:53.267Z,112.20
2018-03-03T08:20:23.372Z,122.80
2018-03-03T08:22:52.531Z,119.47
2018-03-03T08:27:58.991Z,122.65
2018-03-03T08:30:28.335Z,106.73
2018-03-03T08:34:14.672Z,115.50
2018-03-03T08:36:48.448Z,106.13
2018-03-03T08:39:17.643Z,119.78
2018-03-03T08:41:48.747Z,122.95
2018-03-03T08:44:20.959Z,116.10
2018-03-03T08:46:50.114Z,114.97
2018-03-03T08:49:19.260Z,104.63
2018-03-03T08:51:48.465Z,111.97
2018-03-03T08:56:53.935Z,109.22
2018-03-03T09:01:58.274Z,110.50
2018-03-03T09:07:02.615Z,106.32
2018-03-03T09:09:32.719Z,109.57
2018-03-03T09:12:01.858Z,106.50
2018-03-03T09:14:31.020Z,97.63
2018-03-03T09:17:00.235Z,113.37
2018-03-03T09:19:29.524Z,108.80
2018-03-03T09:21:58.673Z,95.03
2018-03-03T09:24:27.819Z,101.37
2018-03-03T09:26:56.986Z,105.87
2018-03-03T09:32:01.383Z,106.30
2018-03-03T09:37:09.554Z,104.55
2018-03-03T09:39:48.416Z,94.00
2018-03-03T09:42:22.694Z,97.70
2018-03-03T09:44:57.705Z,103.77
2018-03-03T09:50:10.536Z,108.65
2018-03-03T09:55:21.934Z,107.43
2018-03-03T09:57:59.491Z,101.70
2018-03-03T10:00:37.019Z,97.87
2018-03-03T10:03:11.521Z,93.30
2018-03-03T10:08:21.664Z,109.75
2018-03-03T10:10:54.593Z,103.80
2018-03-03T10:13:23.847Z,100.53
2018-03-03T10:15:58.143Z,92.23
2018-03-03T10:18:31.022Z,100.17
2018-03-03T10:21:04.631Z,104.40
2018-03-03T10:23:46.421Z,107.85
2018-03-03T10:28:56.315Z,113.85
2018-03-03T10:31:34.198Z,111.43
2018-03-03T10:34:03.401Z,104.77
2018-03-03T10:36:38.280Z,106.53
2018-03-03T10:39:17.163Z,101.23
2018-03-03T10:41:46.330Z,102.83
2018-03-03T10:44:18.994Z,108.17
2018-03-03T10:46:48.291Z,102.80
2018-03-03T10:51:52.632Z,106.00
2018-03-03T10:56:59.083Z,112.78
2018-03-03T10:59:33.588Z,102.40
2018-03-03T11:02:07.439Z,104.60
2018-03-03T11:04:36.592Z,94.23
2018-03-03T11:07:05.745Z,97.60
2018-03-03T11:09:35.855Z,102.03
2018-03-03T11:12:05.032Z,101.07
2018-03-03T11:14:34.183Z,94.77
2018-03-03T11:17:03.371Z,96.37
2018-03-03T11:22:09.776Z,100.50
2018-03-03T11:24:38.939Z,89.20
2018-03-03T11:27:12.224Z,94.43
2018-03-03T11:29:41.518Z,102.60
2018-03-03T11:32:10.897Z,93.03
2018-03-03T11:34:40.408Z,91.50
2018-03-03T11:37:15.382Z,96.13
2018-03-03T11:39:44.545Z,92.97
2018-03-03T11:42:16.017Z,96.40
2018-03-03T11:44:46.742Z,85.70
2018-03-03T11:47:15.939Z,89.10
2018-03-03T11:49:45.090Z,90.63
2018-03-03T11:52:14.303Z,85.30
2018-03-03T11:54:43.467Z,81.17
2018-03-03T11:57:12.629Z,84.23
2018-03-03T11:59:41.783Z,81.47
2018-03-03T12:02:10.945Z,80.80
2018-03-03T12:04:40.537Z,78.40
2018-03-03T12:07:09.716Z,89.73
2018-03-03T12:09:38.877Z,78.90
2018-03-03T12:12:08.020Z,81.73
2018-03-03T12:14:37.185Z,79.67
2018-03-03T12:17:07.329Z,79.10
2018-03-03T12:19:36.505Z,81.27
2018-03-03T12:22:05.669Z,82.40
2018-03-03T12:24:34.831Z,77.40
2018-03-03T12:27:03.994Z,79.70
2018-03-03T12:29:33.143Z,88.70
2018-03-03T12:32:09.628Z,81.07
2018-03-03T12:34:38.779Z,93.60
2018-03-03T12:37:07.963Z,86.53
2018-03-03T12:39:37.123Z,89.17
2018-03-03T12:42:06.308Z,95.30
2018-03-03T12:44:35.531Z,95.22
2018-03-03T12:47:04.671Z,86.50
2018-03-03T12:49:33.840Z,85.73
2018-03-03T12:52:04.975Z,97.27
2018-03-03T12:57:12.488Z,90.60
2018-03-03T12:59:41.620Z,96.63
2018-03-03T13:02:10.812Z,93.57
2018-03-03T13:04:39.963Z,85.67
2018-03-03T13:07:10.127Z,89.47
2018-03-03T13:09:39.306Z,85.93
2018-03-03T13:12:13.331Z,93.60
2018-03-03T13:14:42.507Z,89.43
2018-03-03T13:17:12.639Z,82.73
2018-03-03T13:19:41.796Z,76.30
2018-03-03T13:22:10.999Z,83.80
2018-03-03T13:24:40.123Z,82.40
2018-03-03T13:27:11.328Z,77.70
2018-03-03T13:29:41.130Z,81.23
2018-03-03T13:34:46.023Z,87.65
2018-03-03T13:37:15.200Z,87.05
2018-03-03T13:39:44.397Z,82.28
2018-03-03T13:42:15.518Z,81.37
2018-03-03T13:44:47.811Z,76.93
2018-03-03T13:52:28.234Z,79.85
2018-03-03T13:54:57.427Z,80.93
2018-03-03T13:57:27.523Z,82.50
2018-03-03T14:00:01.634Z,74.53
2018-03-03T14:02:30.798Z,78.83
2018-03-03T14:05:00.056Z,80.60
2018-03-03T14:07:29.228Z,69.87
2018-03-03T14:09:58.453Z,72.47
2018-03-03T14:12:31.060Z,74.67
2018-03-03T14:15:00.235Z,71.73
2018-03-03T14:17:32.208Z,77.80
2018-03-03T14:20:06.425Z,76.23
2018-03-03T14:22:35.579Z,77.47
2018-03-03T14:25:04.742Z,73.07
2018-03-03T14:27:33.894Z,73.93
2018-03-03T14:30:03.086Z,67.23
2018-03-03T14:32:32.304Z,72.20
2018-03-03T14:35:14.430Z,63.97
2018-03-03T14:37:44.652Z,69.00
2018-03-03T14:40:14.739Z,74.57
2018-03-03T14:42:43.968Z,74.30
2018-03-03T14:47:48.362Z,79.03
2018-03-03T14:50:23.137Z,81.07
2018-03-03T14:55:32.357Z,77.45
2018-03-03T14:58:05.882Z,75.15
2018-03-03T15:00:39.592Z,77.03
2018-03-03T15:03:13.569Z,73.30
2018-03-03T15:05:49.095Z,75.17
2018-03-03T15:11:21.370Z,74.37
2018-03-03T15:16:31.729Z,75.97
2018-03-03T15:21:39.021Z,75.50
2018-03-03T15:26:47.032Z,75.57
2018-03-03T15:29:25.641Z,74.13
2018-03-03T15:32:02.185Z,64.80
2018-03-03T15:34:36.310Z,68.80
2018-03-03T15:40:04.297Z,71.53
2018-03-03T15:42:36.463Z,56.23
2018-03-03T15:45:06.958Z,66.50
2018-03-03T15:47:41.003Z,67.33
2018-03-03T15:50:15.869Z,66.70
2018-03-03T15:55:23.671Z,74.47
2018-03-03T15:57:54.302Z,71.63
2018-03-03T16:00:25.574Z,77.67
2018-03-03T16:05:30.824Z,75.57
2018-03-03T16:08:09.462Z,73.40
2018-03-03T16:10:43.291Z,66.10
2018-03-03T16:13:17.488Z,72.50
2018-03-03T16:15:52.636Z,79.78
2018-03-03T16:18:26.719Z,74.53
2018-03-03T16:20:57.803Z,80.33
2018-03-03T16:23:28.039Z,74.57
2018-03-03T16:28:33.814Z,82.35
2018-03-03T16:33:43.549Z,81.95
2018-03-03T16:36:21.167Z,75.13
2018-03-03T16:38:54.791Z,78.75
2018-03-03T16:41:28.678Z,69.57
2018-03-03T16:44:03.114Z,70.93
2018-03-03T16:46:37.459Z,79.15
2018-03-03T16:49:11.101Z,75.53
2018-03-03T16:51:46.034Z,73.00
2018-03-03T16:57:25.091Z,79.12
2018-03-03T17:02:34.841Z,84.05
2018-03-03T17:05:08.314Z,85.27
2018-03-03T17:07:41.667Z,86.22
2018-03-03T17:10:24.709Z,83.07
2018-03-03T17:15:37.704Z,92.33
2018-03-03T17:23:28.327Z,98.68
2018-03-03T17:26:02.701Z,78.43
2018-03-03T17:28:37.879Z,95.22
2018-03-03T17:33:58.362Z,101.78
2018-03-03T17:36:33.381Z,95.97
2018-03-03T17:39:19.832Z,97.53
2018-03-03T17:44:30.391Z,110.70
2018-03-03T17:47:09.131Z,92.50
2018-03-03T17:49:44.272Z,104.00
2018-03-03T17:52:22.268Z,101.90
2018-03-03T17:57:32.585Z,110.05
2018-03-03T18:00:06.127Z,103.53
2018-03-03T18:02:39.736Z,97.53
2018-03-03T18:08:29.131Z,101.03
2018-03-03T18:13:42.262Z,109.65
2018-03-03T18:16:16.615Z,93.30
2018-03-03T18:18:50.670Z,111.15
2018-03-03T18:21:50.126Z,108.23
2018-03-03T18:27:04.022Z,102.70
2018-03-03T18:29:37.331Z,102.10
2018-03-03T18:32:06.509Z,103.05
2018-03-03T18:34:35.707Z,97.37
2018-03-03T18:37:05.770Z,95.70
2018-03-03T18:39:34.926Z,93.93
2018-03-03T18:42:04.884Z,96.17
2018-03-03T18:44:43.636Z,98.70
2018-03-03T18:47:12.910Z,94.80
2018-03-03T18:49:45.230Z,97.90
2018-03-03T18:52:23.226Z,78.93
2018-03-03T18:54:52.389Z,102.55
2018-03-03T18:57:28.954Z,83.63
2018-03-03T18:59:58.119Z,93.47
2018-03-03T19:05:19.380Z,95.00
2018-03-03T19:07:48.576Z,89.60
2018-03-03T19:10:46.302Z,94.15
2018-03-03T19:13:15.522Z,81.93
2018-03-03T19:18:22.404Z,97.82
2018-03-03T19:20:51.842Z,93.17
2018-03-03T19:23:23.011Z,79.00
2018-03-03T19:25:52.551Z,94.65
2018-03-03T19:28:36.587Z,83.40
2018-03-03T19:31:05.745Z,92.22
2018-03-03T19:33:34.880Z,95.70
2018-03-03T19:36:04.045Z,100.93
2018-03-03T19:38:33.460Z,88.27
2018-03-03T19:41:02.637Z,103.38
2018-03-03T19:43:31.802Z,89.03
2018-03-03T19:46:00.984Z,105.85
2018-03-03T19:48:30.191Z,99.93
2018-03-03T19:51:09.888Z,111.10
2018-03-03T19:53:39.208Z,94.57
2018-03-03T19:56:13.247Z,101.43
2018-03-03T19:58:50.359Z,77.47
2018-03-03T20:01:19.517Z,103.80
2018-03-03T20:06:25.876Z,98.43
2018-03-03T20:08:55.040Z,86.43
2018-03-03T20:11:24.215Z,98.85
2018-03-03T20:13:54.314Z,97.67
2018-03-03T20:16:23.472Z,89.33
2018-03-03T20:18:55.950Z,94.57
2018-03-03T20:21:25.093Z,92.67
2018-03-03T20:23:55.477Z,102.15
2018-03-03T20:26:24.650Z,95.47
2018-03-03T20:31:31.496Z,103.07
2018-03-03T20:34:00.674Z,102.57
2018-03-03T20:36:29.846Z,107.28
2018-03-03T20:39:03.862Z,110.37
2018-03-03T20:41:46.564Z,102.97
2018-03-03T20:44:15.754Z,113.28
2018-03-03T20:47:06.656Z,109.35
2018-03-03T20:52:13.504Z,110.50
2018-03-03T20:54:54.047Z,112.15
2018-03-03T20:57:23.236Z,109.57
2018-03-03T21:00:06.335Z,112.72
2018-03-03T21:05:16.679Z,110.28
2018-03-03T21:07:49.347Z,101.17
2018-03-03T21:10:26.420Z,113.27
2018-03-03T21:12:56.545Z,117.65
2018-03-03T21:15:25.761Z,108.03
2018-03-03T21:17:55.111Z,111.78
2018-03-03T21:20:31.720Z,109.93
2018-03-03T21:23:02.008Z,109.73
2018-03-03T21:25:34.670Z,110.25
2018-03-03T21:28:03.926Z,115.78
2018-03-03T21:30:33.978Z,107.00
2018-03-03T21:33:03.139Z,112.93
2018-03-03T21:35:34.295Z,111.68
2018-03-03T21:38:05.595Z,100.77
2018-03-03T21:40:34.817Z,106.12
2018-03-03T21:45:39.337Z,116.03
2018-03-03T21:50:50.200Z,119.80
2018-03-03T21:53:21.414Z,90.10
2018-03-03T21:55:50.579Z,113.32
2018-03-03T21:58:19.732Z,115.13
2018-03-03T22:00:49.071Z,119.60
2018-03-03T22:03:18.228Z,121.20
2018-03-03T22:05:59.825Z,106.03
2018-03-03T22:08:29.581Z,117.82
2018-03-03T22:13:35.064Z,114.50
2018-03-03T22:16:06.387Z,96.70
2018-03-03T22:18:35.652Z,120.97
2018-03-03T22:21:21.436Z,122.35
2018-03-03T22:24:08.070Z,106.40
2018-03-03T22:29:12.749Z,143.87
2018-03-03T22:32:00.124Z,145.70
2018-03-03T22:34:29.453Z,111.90
2018-03-03T22:36:58.700Z,128.35
2018-03-03T22:39:27.883Z,114.13
2018-03-03T22:41:57.067Z,120.35
2018-03-03T22:44:26.313Z,118.23
2018-03-03T22:47:14.027Z,122.05
2018-03-03T22:50:05.516Z,112.40
2018-03-03T22:52:34.907Z,131.55
2018-03-03T22:55:16.526Z,125.03
2018-03-03T22:57:54.816Z,111.83
2018-03-03T23:00:24.191Z,125.57
2018-03-03T23:02:53.828Z,128.77
2018-03-03T23:05:23.338Z,130.50
2018-03-03T23:07:53.606Z,130.00
2018-03-03T23:10:22.884Z,124.87
2018-03-03T23:13:05.160Z,130.70
2018-03-03T23:15:34.803Z,114.13
2018-03-03T23:18:09.711Z,142.93
2018-03-03T23:20:38.925Z,139.45
2018-03-03T23:26:16.894Z,144.07
2018-03-03T23:28:50.409Z,130.47
2018-03-03T23:31:19.580Z,148.13
2018-03-03T23:33:48.843Z,164.62
2018-03-03T23:36:18.952Z,129.77
2018-03-03T23:38:56.635Z,152.12
2018-03-03T23:41:25.795Z,124.10
2018-03-03T23:44:02.619Z,149.02
2018-03-03T23:46:32.254Z,149.62
2018-03-03T23:49:08.455Z,136.20
2018-03-03T23:54:16.795Z,159.47
2018-03-03T23:56:46.323Z,137.90
2018-03-03T23:59:15.531Z,155.10
